Naples, Florida
Current Conditions -  °F | °C
As of 6:00 PM on Tuesday 25 Nov 2014 (Local Time) from KAPF Reporting Station
Overcast Overcast  
Wind Chill: 79°   Ceiling: 3500
Heat Index: 83°   Visibility: 10mi
Dew Point: 75°   Wind: 10mph
Humidity: 88%   Direction: 160°SSE
Pressure: 29.93"   Gusts: NA
Location:  26.14°N, 81.79°W
Report Text: KAPF 252300Z 16009KT 10SM BKN035 OVC085 26/24 A2993 RMK AO2 T02610239
Loading
Personal Weather Stations






























Interactive Weather Map New forecast layout! Learn more

10-Day Weather Forecast

Advertisements
Track Severe Weather on mobile